createdAt,value
2019-04-03T00:00:39.735Z,42.25
2019-04-03T00:01:40.011Z,41.85
2019-04-03T00:02:38.472Z,40.34
2019-04-03T00:03:38.461Z,39.73
2019-04-03T00:04:38.494Z,40.42
2019-04-03T00:05:40.464Z,39.53
2019-04-03T00:06:38.509Z,40.22
2019-04-03T00:07:38.482Z,41.72
2019-04-03T00:08:38.454Z,40.92
2019-04-03T00:09:38.414Z,41.63
2019-04-03T00:11:03.196Z,41.12
2019-04-03T00:12:03.186Z,40.40
2019-04-03T00:14:03.397Z,40.40
2019-04-03T00:15:03.174Z,40.50
2019-04-03T00:16:03.176Z,41.00
2019-04-03T00:17:03.141Z,40.80
2019-04-03T00:18:03.129Z,41.00
2019-04-03T00:19:03.113Z,41.00
2019-04-03T00:20:03.266Z,40.30
2019-04-03T00:21:03.141Z,40.60
2019-04-03T00:22:03.079Z,39.30
2019-04-03T00:23:03.085Z,40.50
2019-04-03T00:24:03.057Z,40.50
2019-04-03T00:25:03.046Z,40.60
2019-04-03T00:26:03.088Z,40.22
2019-04-03T00:27:03.027Z,40.52
2019-04-03T00:28:03.018Z,41.12
2019-04-03T00:29:03.008Z,41.02
2019-04-03T00:30:02.996Z,41.24
2019-04-03T00:31:03.035Z,40.74
2019-04-03T00:32:02.990Z,41.35
2019-04-03T00:33:02.991Z,41.24
2019-04-03T00:34:02.956Z,40.94
2019-04-03T00:35:02.949Z,40.74
2019-04-03T00:36:02.930Z,40.74
2019-04-03T00:37:03.030Z,41.16
2019-04-03T00:38:02.909Z,41.87
2019-04-03T00:39:02.895Z,41.87
2019-04-03T00:40:03.010Z,41.94
2019-04-03T00:41:02.878Z,41.94
2019-04-03T00:42:02.871Z,42.07
2019-04-03T00:43:02.952Z,41.97
2019-04-03T00:44:02.847Z,42.15
2019-04-03T00:45:02.831Z,41.65
2019-04-03T00:46:02.822Z,41.87
2019-04-03T00:47:02.814Z,41.66
2019-04-03T00:48:02.838Z,41.57
2019-04-03T00:49:02.988Z,41.75
2019-04-03T00:50:02.783Z,42.07
2019-04-03T00:51:02.815Z,40.76
2019-04-03T00:52:02.765Z,41.16
2019-04-03T00:53:02.749Z,41.06
2019-04-03T00:54:02.737Z,41.06
2019-04-03T00:57:02.703Z,41.97
2019-04-03T00:58:02.698Z,42.27
2019-04-03T00:59:02.681Z,41.77
2019-04-03T01:00:02.674Z,40.96
2019-04-03T01:01:02.767Z,40.46
2019-04-03T01:02:02.649Z,41.87
2019-04-03T01:03:02.646Z,41.57
2019-04-03T01:04:02.636Z,41.46
2019-04-03T01:05:02.619Z,41.57
2019-04-03T01:06:02.610Z,42.27
2019-04-03T01:07:02.747Z,42.45
2019-04-03T01:08:02.847Z,42.35
2019-04-03T01:09:02.633Z,42.33
2019-04-03T01:10:03.780Z,41.83
2019-04-03T01:11:02.564Z,42.21
2019-04-03T01:12:02.649Z,41.12
2019-04-03T01:13:02.589Z,41.91
2019-04-03T01:14:02.524Z,41.00
2019-04-03T01:15:02.602Z,40.50
2019-04-03T01:16:03.020Z,41.12
2019-04-03T01:17:04.360Z,40.70
2019-04-03T01:18:04.281Z,40.92
2019-04-03T01:19:05.098Z,40.52
2019-04-03T01:20:02.552Z,41.22
2019-04-03T01:21:27.281Z,41.63
2019-04-03T01:23:52.242Z,41.32
2019-04-03T01:24:52.060Z,40.72
2019-04-03T01:25:53.257Z,40.92
2019-04-03T01:26:52.016Z,41.52
2019-04-03T01:27:53.368Z,40.82
2019-04-03T01:28:52.198Z,40.92
2019-04-03T01:30:17.668Z,40.82
2019-04-03T01:30:53.248Z,40.72
2019-04-03T01:31:51.976Z,40.72
2019-04-03T01:32:52.024Z,40.82
2019-04-03T01:33:52.021Z,40.92
2019-04-03T01:34:51.933Z,40.90
2019-04-03T01:35:51.925Z,43.74
2019-04-03T01:36:51.913Z,43.13
2019-04-03T01:37:52.158Z,42.84
2019-04-03T01:38:51.896Z,41.30
2019-04-03T01:39:51.881Z,42.33
2019-04-03T01:40:51.874Z,42.23
2019-04-03T01:41:52.078Z,43.03
2019-04-03T01:43:16.727Z,41.41
2019-04-03T01:44:16.853Z,42.11
2019-04-03T01:45:16.636Z,41.51
2019-04-03T01:46:16.831Z,42.11
2019-04-03T01:47:16.653Z,42.61
2019-04-03T01:48:16.711Z,42.91
2019-04-03T01:49:16.597Z,41.81
2019-04-03T01:50:16.784Z,41.00
2019-04-03T01:51:16.574Z,41.30
2019-04-03T01:52:16.932Z,40.30
2019-04-03T01:54:16.654Z,38.97
2019-04-03T01:55:16.543Z,39.88
2019-04-03T01:56:16.531Z,40.36
2019-04-03T01:57:16.546Z,39.46
2019-04-03T01:58:16.507Z,40.06
2019-04-03T01:59:16.597Z,40.54
2019-04-03T02:00:16.575Z,40.14
2019-04-03T02:01:16.555Z,40.64
2019-04-03T02:02:16.467Z,39.32
2019-04-03T02:03:16.499Z,39.10
2019-04-03T02:05:43.271Z,39.20
2019-04-03T02:06:41.801Z,38.28
2019-04-03T02:07:44.465Z,38.14
2019-04-03T02:08:41.505Z,37.23
2019-04-03T02:09:41.303Z,37.73
2019-04-03T02:10:41.496Z,37.01
2019-04-03T02:11:41.287Z,36.59
2019-04-03T02:12:41.277Z,36.69
2019-04-03T02:13:41.362Z,36.19
2019-04-03T02:14:41.261Z,35.79
2019-04-03T02:15:41.298Z,35.89
2019-04-03T02:16:41.232Z,36.29
2019-04-03T02:17:41.235Z,36.39
2019-04-03T02:18:41.268Z,36.07
2019-04-03T02:19:41.237Z,35.46
2019-04-03T02:20:41.251Z,36.46
2019-04-03T02:21:41.181Z,35.76
2019-04-03T02:22:41.181Z,35.26
2019-04-03T02:23:48.604Z,35.85
2019-04-03T02:25:06.221Z,35.12
2019-04-03T02:26:06.255Z,34.62
2019-04-03T02:27:05.958Z,35.62
2019-04-03T02:28:05.928Z,35.21
2019-04-03T02:29:08.222Z,34.91
2019-04-03T02:30:05.913Z,34.59
2019-04-03T02:32:06.190Z,35.37
2019-04-03T02:33:05.905Z,35.27
2019-04-03T02:34:05.909Z,34.39
2019-04-03T02:35:07.773Z,35.58
2019-04-03T02:36:05.872Z,35.09
2019-04-03T02:37:05.930Z,33.89
2019-04-03T02:38:05.883Z,33.69
2019-04-03T02:39:05.867Z,32.59
2019-04-03T02:40:07.802Z,33.30
2019-04-03T02:41:05.831Z,32.89
2019-04-03T02:42:30.698Z,33.19
2019-04-03T02:43:30.853Z,32.38
2019-04-03T02:44:30.674Z,32.28
2019-04-03T02:45:30.794Z,32.18
2019-04-03T02:46:59.719Z,32.68
2019-04-03T02:47:55.503Z,32.78
2019-04-03T02:48:55.730Z,32.48
2019-04-03T02:49:55.790Z,32.67
2019-04-03T02:50:55.427Z,32.26
2019-04-03T02:51:55.607Z,32.35
2019-04-03T02:52:58.001Z,32.55
2019-04-03T02:53:55.441Z,32.55
2019-04-03T02:54:55.445Z,33.05
2019-04-03T02:56:20.181Z,33.05
2019-04-03T02:57:20.229Z,33.05
2019-04-03T02:58:22.736Z,32.55
2019-04-03T02:59:20.393Z,32.73
2019-04-03T03:00:20.136Z,32.23
2019-04-03T03:01:20.146Z,32.53
2019-04-03T03:02:20.280Z,32.32
2019-04-03T03:03:20.308Z,32.09
2019-04-03T03:04:21.930Z,32.39
2019-04-03T03:05:26.893Z,33.78
2019-04-03T03:06:20.116Z,32.17
2019-04-03T03:07:23.399Z,31.78
2019-04-03T03:08:22.755Z,32.95
2019-04-03T03:10:20.621Z,40.00
2019-04-03T03:11:24.511Z,40.00
2019-04-03T03:12:20.215Z,35.54
2019-04-03T03:13:20.008Z,34.64
2019-04-03T03:14:20.066Z,32.84
2019-04-03T03:15:45.531Z,35.15
2019-04-03T03:16:44.819Z,34.85
2019-04-03T03:17:45.259Z,34.26
2019-04-03T03:18:59.891Z,34.77
2019-04-03T03:20:11.541Z,34.68
2019-04-03T03:21:12.036Z,32.29
2019-04-03T03:22:09.636Z,31.90
2019-04-03T03:23:09.581Z,32.99
2019-04-03T03:24:29.750Z,34.59
2019-04-03T03:25:09.647Z,34.00
2019-04-03T03:26:09.867Z,33.80
2019-04-03T03:27:10.224Z,33.60
2019-04-03T03:28:13.199Z,34.59
2019-04-03T03:29:17.861Z,35.08
2019-04-03T03:30:32.722Z,34.39
2019-04-03T03:31:11.881Z,33.50
2019-04-03T03:32:18.879Z,34.01
2019-04-03T03:33:37.517Z,35.60
2019-04-03T03:34:51.308Z,34.49
2019-04-03T03:35:42.079Z,34.47
2019-04-03T03:37:59.676Z,33.98
2019-04-03T03:38:59.635Z,34.05
2019-04-03T03:39:59.487Z,33.11
2019-04-03T03:40:59.502Z,30.91
2019-04-03T03:41:59.471Z,29.52
2019-04-03T03:43:59.415Z,29.76
2019-04-03T03:45:32.655Z,27.97
2019-04-03T03:45:59.220Z,27.45
2019-04-03T03:47:01.031Z,26.06
2019-04-03T03:47:59.232Z,25.85
2019-04-03T03:50:25.132Z,25.04
2019-04-03T03:51:24.311Z,24.34
2019-04-03T03:52:49.065Z,23.74
2019-04-03T03:53:48.828Z,23.54
2019-04-03T03:54:51.245Z,23.73
2019-04-03T03:56:49.133Z,22.16
2019-04-03T03:57:50.790Z,22.46
2019-04-03T03:58:48.845Z,22.46
2019-04-03T04:00:13.575Z,23.46
2019-04-03T04:01:13.586Z,23.98
2019-04-03T04:04:15.321Z,24.32
2019-04-03T04:05:20.030Z,24.92
2019-04-03T04:06:14.840Z,25.52
2019-04-03T04:07:13.614Z,25.64
2019-04-03T04:10:38.806Z,26.23
2019-04-03T04:11:38.464Z,25.84
2019-04-03T04:13:03.570Z,25.92
2019-04-03T04:14:03.237Z,25.41
2019-04-03T04:15:03.200Z,25.01
2019-04-03T04:16:04.879Z,25.80
2019-04-03T04:17:03.220Z,25.89
2019-04-03T04:18:03.243Z,25.51
2019-04-03T04:19:03.186Z,26.00
2019-04-03T04:20:05.326Z,25.90
2019-04-03T04:21:03.627Z,26.09
2019-04-03T04:24:03.112Z,25.23
2019-04-03T04:25:03.158Z,24.43
2019-04-03T04:26:05.087Z,24.51
2019-04-03T04:27:28.043Z,24.00
2019-04-03T04:28:28.041Z,23.80
2019-04-03T04:29:29.865Z,23.59
2019-04-03T04:30:52.876Z,23.77
2019-04-03T04:31:52.656Z,23.18
2019-04-03T04:32:52.701Z,22.99
2019-04-03T04:34:52.680Z,23.38
2019-04-03T04:35:53.226Z,23.08
2019-04-03T04:36:53.053Z,23.08
2019-04-03T04:37:56.662Z,23.57
2019-04-03T04:38:57.929Z,22.89
2019-04-03T04:39:52.579Z,22.29
2019-04-03T04:40:52.768Z,22.46
2019-04-03T04:41:52.553Z,22.27
2019-04-03T04:42:52.544Z,22.85
2019-04-03T04:43:52.565Z,21.87
2019-04-03T04:44:52.523Z,21.66
2019-04-03T04:45:52.557Z,22.74
2019-04-03T04:46:52.551Z,22.53
2019-04-03T04:47:52.493Z,20.77
2019-04-03T04:48:52.493Z,21.16
2019-04-03T04:49:53.593Z,21.94
2019-04-03T04:50:54.228Z,22.33
2019-04-03T04:51:52.572Z,22.14
2019-04-03T04:52:52.745Z,22.44
2019-04-03T04:53:53.637Z,22.07
2019-04-03T04:54:55.654Z,21.97
2019-04-03T04:55:52.413Z,22.46
2019-04-03T04:56:52.420Z,21.97
2019-04-03T04:58:19.079Z,21.97
2019-04-03T04:59:17.374Z,21.86
2019-04-03T05:00:17.489Z,22.04
2019-04-03T05:01:18.140Z,22.43
2019-04-03T05:02:17.875Z,21.06
2019-04-03T05:03:17.300Z,21.64
2019-04-03T05:04:17.539Z,20.37
2019-04-03T05:05:17.292Z,20.86
2019-04-03T05:06:17.267Z,21.73
2019-04-03T05:07:20.544Z,21.53
2019-04-03T05:08:17.293Z,21.83
2019-04-03T05:09:17.341Z,21.42
2019-04-03T05:10:17.902Z,21.14
2019-04-03T05:11:17.274Z,21.25
2019-04-03T05:12:44.482Z,21.16
2019-04-03T05:13:46.375Z,20.58
2019-04-03T05:14:46.892Z,19.79
2019-04-03T05:15:42.196Z,20.85
2019-04-03T05:17:07.706Z,20.94
2019-04-03T05:17:42.003Z,19.97
2019-04-03T05:18:41.975Z,19.78
2019-04-03T05:21:08.750Z,20.87
2019-04-03T05:22:07.006Z,21.09
2019-04-03T05:23:08.943Z,20.89
2019-04-03T05:24:12.819Z,21.88
2019-04-03T05:25:31.568Z,22.38
2019-04-03T05:26:32.189Z,22.49
2019-04-03T05:27:33.338Z,22.77
2019-04-03T05:28:34.187Z,22.78
2019-04-03T05:29:34.203Z,23.08
2019-04-03T05:30:31.498Z,23.68
2019-04-03T05:31:31.465Z,23.68
2019-04-03T05:32:31.900Z,23.69
2019-04-03T05:33:31.500Z,23.89
2019-04-03T05:34:31.500Z,23.50
2019-04-03T05:35:31.435Z,24.20
2019-04-03T05:36:31.433Z,23.90
2019-04-03T05:37:31.606Z,24.40
2019-04-03T05:38:37.406Z,24.12
2019-04-03T05:39:31.383Z,24.13
2019-04-03T05:40:38.668Z,24.73
2019-04-03T05:41:58.517Z,25.04
2019-04-03T05:43:00.206Z,25.54
2019-04-03T05:43:56.287Z,25.25
2019-04-03T05:44:56.147Z,25.35
2019-04-03T05:45:57.365Z,26.25
2019-04-03T05:46:58.974Z,24.96
2019-04-03T05:47:56.123Z,25.65
2019-04-03T05:48:56.109Z,24.38
2019-04-03T05:49:56.486Z,25.06
2019-04-03T05:50:58.139Z,25.54
2019-04-03T05:51:56.077Z,26.03
2019-04-03T05:52:56.065Z,25.75
2019-04-03T05:53:56.306Z,25.26
2019-04-03T05:54:56.048Z,24.38
2019-04-03T05:55:56.131Z,25.56
2019-04-03T05:56:56.077Z,25.06
2019-04-03T05:57:56.220Z,25.17
2019-04-03T05:59:00.393Z,25.56
2019-04-03T06:00:13.674Z,25.56
2019-04-03T06:02:14.050Z,25.45
2019-04-03T06:03:21.889Z,24.76
2019-04-03T06:04:45.837Z,25.65
2019-04-03T06:05:45.584Z,25.56
2019-04-03T06:06:46.869Z,25.85
2019-04-03T06:08:45.548Z,25.65
2019-04-03T06:09:45.533Z,26.04
2019-04-03T06:10:45.530Z,25.95
2019-04-03T06:11:45.524Z,25.95
2019-04-03T06:12:46.349Z,25.75
2019-04-03T06:13:48.575Z,25.85
2019-04-03T06:14:45.532Z,25.56
2019-04-03T06:15:45.712Z,26.03
2019-04-03T06:16:45.538Z,24.56
2019-04-03T06:18:10.498Z,25.73
2019-04-03T06:19:10.413Z,25.92
2019-04-03T06:20:11.344Z,25.74
2019-04-03T06:21:10.472Z,26.03
2019-04-03T06:22:10.759Z,26.03
2019-04-03T06:23:10.502Z,25.65
2019-04-03T06:25:35.199Z,25.75
2019-04-03T06:26:59.913Z,26.75
2019-04-03T06:28:00.412Z,26.84
2019-04-03T06:29:35.157Z,26.66
2019-04-03T06:30:02.103Z,26.56
2019-04-03T06:31:27.813Z,27.06
2019-04-03T06:31:59.915Z,26.37
2019-04-03T06:33:01.963Z,26.47
2019-04-03T06:34:01.845Z,26.27
2019-04-03T06:35:00.042Z,26.17
2019-04-03T06:35:59.857Z,26.28
2019-04-03T06:36:59.856Z,26.87
2019-04-03T06:37:59.819Z,27.27
2019-04-03T06:38:59.792Z,26.20
2019-04-03T06:40:02.329Z,27.47
2019-04-03T06:40:59.769Z,25.99
2019-04-03T06:42:59.902Z,26.79
2019-04-03T06:43:59.754Z,26.89
2019-04-03T06:44:59.728Z,26.98
2019-04-03T06:45:59.978Z,26.21
2019-04-03T06:47:00.838Z,26.40
2019-04-03T06:47:59.697Z,27.39
2019-04-03T06:48:59.824Z,26.80
2019-04-03T06:49:59.880Z,27.09
2019-04-03T06:50:59.666Z,27.60
2019-04-03T06:51:59.653Z,27.91
2019-04-03T06:52:59.660Z,28.72
2019-04-03T06:53:59.994Z,28.12
2019-04-03T06:54:59.676Z,28.22
2019-04-03T06:55:59.631Z,28.12
2019-04-03T06:57:13.860Z,27.73
2019-04-03T06:58:00.935Z,28.93
2019-04-03T06:58:59.581Z,29.35
2019-04-03T06:59:59.570Z,29.27
2019-04-03T07:00:59.716Z,28.98
2019-04-03T07:01:59.551Z,28.98
2019-04-03T07:03:24.390Z,29.87
2019-04-03T07:04:49.157Z,31.52
2019-04-03T07:05:49.145Z,30.75
2019-04-03T07:06:49.282Z,31.25
2019-04-03T07:07:49.126Z,32.14
2019-04-03T07:08:49.207Z,32.45
2019-04-03T07:09:50.823Z,33.07
2019-04-03T07:10:55.072Z,31.86
2019-04-03T07:12:16.006Z,32.04
2019-04-03T07:13:15.229Z,32.13
2019-04-03T07:14:14.036Z,32.23
2019-04-03T07:15:14.203Z,31.71
2019-04-03T07:16:39.040Z,31.29
2019-04-03T07:17:38.856Z,30.88
2019-04-03T07:18:39.149Z,30.86
2019-04-03T07:19:40.970Z,28.97
2019-04-03T07:20:38.772Z,28.97
2019-04-03T07:21:38.985Z,29.84
2019-04-03T07:22:38.813Z,27.39
2019-04-03T07:25:03.943Z,26.87
2019-04-03T07:26:05.156Z,27.06
2019-04-03T07:27:06.067Z,26.66
2019-04-03T07:28:18.278Z,28.33
2019-04-03T07:29:03.588Z,28.43
2019-04-03T07:30:03.597Z,27.05
2019-04-03T07:31:28.511Z,27.34
2019-04-03T07:32:28.484Z,27.84
2019-04-03T07:33:28.685Z,27.25
2019-04-03T07:34:28.602Z,27.04
2019-04-03T07:35:31.552Z,27.92
2019-04-03T07:36:53.090Z,27.14
2019-04-03T07:38:18.083Z,27.83
2019-04-03T07:39:19.981Z,27.63
2019-04-03T07:40:18.708Z,27.92
2019-04-03T07:41:17.883Z,27.13
2019-04-03T07:42:17.806Z,26.53
2019-04-03T07:43:17.800Z,26.25
2019-04-03T07:44:17.835Z,26.63
2019-04-03T07:45:44.002Z,26.83
2019-04-03T07:46:42.829Z,27.13
2019-04-03T07:47:42.818Z,26.53
2019-04-03T07:48:42.811Z,26.33
2019-04-03T07:49:42.933Z,27.01
2019-04-03T07:50:43.040Z,28.02
2019-04-03T07:51:43.724Z,28.93
2019-04-03T07:52:47.430Z,28.04
2019-04-03T07:53:42.975Z,28.22
2019-04-03T07:54:42.815Z,27.91
2019-04-03T07:56:25.569Z,27.01
2019-04-03T07:57:09.762Z,26.90
2019-04-03T07:58:07.634Z,26.90
2019-04-03T07:59:07.649Z,27.30
2019-04-03T08:00:14.956Z,27.41
2019-04-03T08:01:09.864Z,27.01
2019-04-03T08:02:07.647Z,27.21
2019-04-03T08:03:10.794Z,27.21
2019-04-03T08:04:07.726Z,26.81
2019-04-03T08:05:09.579Z,27.41
2019-04-03T08:06:07.645Z,27.31
2019-04-03T08:07:07.675Z,27.41
2019-04-03T08:08:08.792Z,27.60
2019-04-03T08:09:09.341Z,28.19
2019-04-03T08:10:07.766Z,27.31
2019-04-03T08:11:07.809Z,27.61
2019-04-03T08:12:09.501Z,27.91
2019-04-03T08:13:07.686Z,28.11
2019-04-03T08:14:09.099Z,28.21
2019-04-03T08:15:08.698Z,28.02
2019-04-03T08:16:07.517Z,28.43
2019-04-03T08:17:07.841Z,27.87
2019-04-03T08:18:07.611Z,29.16
2019-04-03T08:19:23.193Z,26.89
2019-04-03T08:20:07.425Z,27.19
2019-04-03T08:22:07.480Z,26.77
2019-04-03T08:23:07.358Z,26.97
2019-04-03T08:24:08.087Z,27.55
2019-04-03T08:25:10.621Z,26.34
2019-04-03T08:26:07.333Z,26.55
2019-04-03T08:27:08.643Z,27.92
2019-04-03T08:28:07.426Z,27.23
2019-04-03T08:29:07.298Z,26.64
2019-04-03T08:30:08.565Z,26.23
2019-04-03T08:31:10.847Z,26.14
2019-04-03T08:32:09.405Z,26.23
2019-04-03T08:33:16.078Z,27.14
2019-04-03T08:34:32.738Z,26.55
2019-04-03T08:35:35.762Z,28.32
2019-04-03T08:36:32.133Z,27.43
2019-04-03T08:37:32.793Z,28.32
2019-04-03T08:38:32.336Z,27.92
2019-04-03T08:39:32.263Z,28.14
2019-04-03T08:40:57.158Z,27.92
2019-04-03T08:41:57.269Z,28.02
2019-04-03T08:42:59.532Z,28.02
2019-04-03T08:43:58.877Z,27.43
2019-04-03T08:44:56.937Z,28.02
2019-04-03T08:45:56.870Z,28.02
2019-04-03T08:47:21.746Z,27.84
2019-04-03T08:48:21.645Z,28.12
2019-04-03T08:49:21.642Z,28.24
2019-04-03T08:50:21.789Z,28.42
2019-04-03T08:51:21.613Z,28.42
2019-04-03T08:52:46.749Z,28.72
2019-04-03T08:54:11.379Z,27.43
2019-04-03T08:55:14.137Z,27.92
2019-04-03T08:56:11.660Z,28.02
2019-04-03T08:57:11.440Z,28.42
2019-04-03T08:58:11.180Z,28.33
2019-04-03T08:59:13.145Z,28.43
2019-04-03T09:00:13.193Z,27.73
2019-04-03T09:01:39.427Z,28.12
2019-04-03T09:02:35.946Z,28.01
2019-04-03T09:03:35.988Z,28.02
2019-04-03T09:04:35.926Z,27.81
2019-04-03T09:05:35.916Z,28.31
2019-04-03T09:07:01.132Z,27.90
2019-04-03T09:08:03.191Z,27.41
2019-04-03T09:09:01.206Z,27.90
2019-04-03T09:10:01.442Z,27.90
2019-04-03T09:11:00.873Z,27.90
2019-04-03T09:12:01.290Z,27.60
2019-04-03T09:13:00.908Z,27.31
2019-04-03T09:14:01.044Z,27.60
2019-04-03T09:15:00.939Z,27.80
2019-04-03T09:16:00.862Z,27.70
2019-04-03T09:17:25.809Z,27.61
2019-04-03T09:18:25.663Z,26.83
2019-04-03T09:19:42.211Z,27.61
2019-04-03T09:20:27.809Z,26.12
2019-04-03T09:21:25.627Z,26.81
2019-04-03T09:22:25.765Z,27.70
2019-04-03T09:23:25.609Z,27.13
2019-04-03T09:24:28.768Z,28.02
2019-04-03T09:25:25.586Z,27.15
2019-04-03T09:26:25.571Z,28.15
2019-04-03T09:27:25.568Z,28.84
2019-04-03T09:28:25.699Z,29.04
2019-04-03T09:29:25.560Z,28.84
2019-04-03T09:30:25.534Z,28.55
2019-04-03T09:31:26.765Z,28.84
2019-04-03T09:32:25.731Z,28.94
2019-04-03T09:33:26.361Z,29.14
2019-04-03T09:34:28.720Z,28.25
2019-04-03T09:35:25.681Z,29.22
2019-04-03T09:36:25.835Z,28.93
2019-04-03T09:37:25.462Z,28.93
2019-04-03T09:38:25.506Z,28.73
2019-04-03T09:39:25.743Z,29.13
2019-04-03T09:40:25.768Z,29.01
2019-04-03T09:41:25.442Z,28.33
2019-04-03T09:42:25.610Z,28.22
2019-04-03T09:43:25.681Z,28.42
2019-04-03T09:44:25.942Z,28.32
2019-04-03T09:45:27.633Z,28.42
2019-04-03T09:46:25.734Z,28.02
2019-04-03T09:47:25.354Z,27.83
2019-04-03T09:48:25.375Z,27.92
2019-04-03T09:50:25.430Z,28.52
2019-04-03T09:51:52.555Z,27.43
2019-04-03T09:52:54.204Z,28.12
2019-04-03T09:53:51.411Z,28.12
2019-04-03T09:55:14.930Z,26.94
2019-04-03T09:56:15.414Z,28.01
2019-04-03T09:57:14.886Z,27.73
2019-04-03T09:58:14.928Z,27.23
2019-04-03T09:59:16.282Z,26.94
2019-04-03T10:00:14.853Z,27.02
2019-04-03T10:01:18.020Z,27.13
2019-04-03T10:02:14.926Z,27.01
2019-04-03T10:03:14.894Z,27.31
2019-04-03T10:04:39.914Z,26.22
2019-04-03T10:05:39.615Z,27.31
2019-04-03T10:06:39.602Z,26.90
2019-04-03T10:07:39.687Z,27.01
2019-04-03T10:08:40.411Z,27.01
2019-04-03T10:09:41.118Z,26.90
2019-04-03T10:10:39.616Z,26.21
2019-04-03T10:11:39.777Z,27.30
2019-04-03T10:13:39.643Z,27.73
2019-04-03T10:14:39.528Z,28.74
2019-04-03T10:15:39.512Z,29.45
2019-04-03T10:16:39.707Z,29.08
2019-04-03T10:17:39.710Z,29.28
2019-04-03T10:21:39.557Z,31.42
2019-04-03T10:22:41.733Z,31.23
2019-04-03T10:23:41.453Z,31.22
2019-04-03T10:24:39.686Z,30.91
2019-04-03T10:25:39.504Z,30.81
2019-04-03T10:26:40.831Z,31.42
2019-04-03T10:27:42.649Z,31.12
2019-04-03T10:28:42.589Z,32.14
2019-04-03T10:29:39.361Z,31.84
2019-04-03T10:31:39.643Z,31.35
2019-04-03T10:32:39.375Z,31.95
2019-04-03T10:33:39.737Z,32.14
2019-04-03T10:34:39.350Z,32.36
2019-04-03T10:35:39.841Z,32.08
2019-04-03T10:36:40.160Z,32.98
2019-04-03T10:37:41.426Z,34.19
2019-04-03T10:38:41.725Z,34.11
2019-04-03T10:39:43.341Z,34.19
2019-04-03T10:40:39.278Z,33.20
2019-04-03T10:41:39.439Z,32.50
2019-04-03T10:42:39.252Z,33.48
2019-04-03T10:43:39.595Z,34.19
2019-04-03T10:44:39.213Z,32.50
2019-04-03T10:45:39.198Z,33.69
2019-04-03T10:46:39.385Z,32.69
2019-04-03T10:47:43.382Z,32.87
2019-04-03T10:48:39.175Z,31.87
2019-04-03T10:51:41.588Z,33.28
2019-04-03T10:52:39.195Z,33.07
2019-04-03T10:53:39.155Z,32.37
2019-04-03T10:54:41.395Z,33.56
2019-04-03T10:55:39.130Z,31.84
2019-04-03T10:56:39.125Z,32.24
2019-04-03T10:57:39.285Z,32.45
2019-04-03T10:58:42.252Z,32.06
2019-04-03T10:59:39.256Z,32.34
2019-04-03T11:00:39.218Z,32.36
2019-04-03T11:01:39.034Z,32.36
2019-04-03T11:03:04.170Z,32.54
2019-04-03T11:04:05.924Z,32.24
2019-04-03T11:05:04.152Z,32.16
2019-04-03T11:06:05.162Z,32.34
2019-04-03T11:07:03.912Z,32.04
2019-04-03T11:08:28.749Z,32.34
2019-04-03T11:09:28.958Z,32.34
2019-04-03T11:10:28.725Z,31.43
2019-04-03T11:11:29.678Z,31.83
2019-04-03T11:12:31.922Z,31.43
2019-04-03T11:14:03.017Z,31.42
2019-04-03T11:14:28.683Z,31.71
2019-04-03T11:15:53.659Z,31.10
2019-04-03T11:16:53.736Z,31.10
2019-04-03T11:17:55.790Z,30.61
2019-04-03T11:19:00.131Z,30.60
2019-04-03T11:20:18.469Z,31.70
2019-04-03T11:21:18.579Z,31.53
2019-04-03T11:22:18.235Z,32.16
2019-04-03T11:23:21.615Z,33.07
2019-04-03T11:24:43.317Z,32.36
2019-04-03T11:25:45.836Z,32.24
2019-04-03T11:26:43.162Z,31.05
2019-04-03T11:27:45.032Z,31.45
2019-04-03T11:28:43.684Z,31.84
2019-04-03T11:30:43.170Z,32.87
2019-04-03T11:31:43.439Z,33.07
2019-04-03T11:32:43.042Z,32.16
2019-04-03T11:33:45.929Z,31.65
2019-04-03T11:34:43.030Z,31.25
2019-04-03T11:35:43.572Z,31.75
2019-04-03T11:36:43.167Z,31.84
2019-04-03T11:38:14.062Z,32.23
2019-04-03T11:40:00.541Z,31.23
2019-04-03T11:40:34.677Z,31.43
2019-04-03T11:41:32.585Z,31.73
2019-04-03T11:43:32.698Z,31.95
2019-04-03T11:44:32.768Z,31.84
2019-04-03T11:45:32.678Z,32.08
2019-04-03T11:46:32.601Z,33.27
2019-04-03T11:47:32.569Z,33.08
2019-04-03T11:48:32.607Z,33.58
2019-04-03T11:49:57.784Z,34.29
2019-04-03T11:51:24.315Z,34.51
2019-04-03T11:52:22.434Z,33.71
2019-04-03T11:53:25.925Z,34.21
2019-04-03T11:54:22.808Z,33.80
2019-04-03T11:55:22.478Z,34.38
2019-04-03T11:56:22.780Z,34.31
2019-04-03T11:57:22.312Z,34.11
2019-04-03T11:58:22.574Z,35.02
2019-04-03T11:59:24.377Z,34.42
2019-04-03T12:00:24.413Z,35.14
2019-04-03T12:01:22.262Z,34.64
2019-04-03T12:02:22.326Z,35.14
2019-04-03T12:03:22.254Z,35.83
2019-04-03T12:04:22.253Z,35.42
2019-04-03T12:06:47.075Z,34.61
2019-04-03T12:07:56.539Z,33.59
2019-04-03T12:08:49.087Z,33.88
2019-04-03T12:09:49.390Z,33.88
2019-04-03T12:10:47.293Z,32.89
2019-04-03T12:13:47.153Z,32.77
2019-04-03T12:15:11.930Z,32.87
2019-04-03T12:16:11.760Z,32.77
2019-04-03T12:17:11.750Z,32.67
2019-04-03T12:18:11.805Z,32.97
2019-04-03T12:20:27.412Z,33.07
2019-04-03T12:21:14.155Z,32.27
2019-04-03T12:22:12.035Z,32.27
2019-04-03T12:23:11.798Z,33.07
2019-04-03T12:24:37.390Z,33.68
2019-04-03T12:27:14.646Z,33.81
2019-04-03T12:28:13.016Z,34.01
2019-04-03T12:29:54.331Z,34.84
2019-04-03T12:31:09.638Z,35.05
2019-04-03T12:31:36.798Z,35.65
2019-04-03T12:32:42.955Z,35.57
2019-04-03T12:33:37.716Z,35.29
2019-04-03T12:35:01.205Z,35.39
2019-04-03T12:36:27.586Z,35.79
2019-04-03T12:37:26.174Z,36.17
2019-04-03T12:38:26.193Z,35.67
2019-04-03T12:39:41.417Z,36.18
2019-04-03T12:40:25.949Z,35.88
2019-04-03T12:41:27.426Z,36.18
2019-04-03T12:42:26.150Z,36.29
2019-04-03T12:43:33.381Z,35.47
2019-04-03T12:45:26.913Z,35.05
2019-04-03T12:46:28.079Z,35.14
2019-04-03T12:47:28.007Z,34.34
2019-04-03T12:51:54.942Z,34.72
2019-04-03T12:52:54.953Z,34.13
2019-04-03T12:53:54.920Z,34.84
2019-04-03T12:54:54.909Z,34.64
2019-04-03T12:55:57.119Z,34.64
2019-04-03T12:56:54.941Z,35.95
2019-04-03T12:57:54.878Z,35.17
2019-04-03T12:58:54.862Z,35.87
2019-04-03T12:59:54.852Z,35.37
2019-04-03T13:00:54.842Z,35.57
2019-04-03T13:01:55.032Z,35.29
2019-04-03T13:02:55.361Z,36.09
2019-04-03T13:03:56.368Z,36.30
2019-04-03T13:04:54.885Z,35.37
2019-04-03T13:05:55.008Z,35.07
2019-04-03T13:06:54.775Z,35.35
2019-04-03T13:07:54.771Z,34.75
2019-04-03T13:08:54.961Z,35.75
2019-04-03T13:09:54.742Z,34.56
2019-04-03T13:10:54.926Z,35.55
2019-04-03T13:11:55.075Z,34.66
2019-04-03T13:12:56.538Z,34.86
2019-04-03T13:13:55.062Z,34.84
2019-04-03T13:14:55.121Z,34.26
2019-04-03T13:15:55.026Z,34.66
2019-04-03T13:16:54.673Z,35.85
2019-04-03T13:17:54.660Z,35.75
2019-04-03T13:18:54.651Z,34.36
2019-04-03T13:19:54.636Z,34.66
2019-04-03T13:20:55.306Z,35.05
2019-04-03T13:21:54.865Z,35.65
2019-04-03T13:22:55.040Z,34.86
2019-04-03T13:23:54.593Z,35.05
2019-04-03T13:24:54.584Z,35.65
2019-04-03T13:25:54.620Z,35.35
2019-04-03T13:26:57.152Z,35.27
2019-04-03T13:27:54.554Z,35.37
2019-04-03T13:28:54.543Z,35.69
2019-04-03T13:29:54.533Z,35.67
2019-04-03T13:30:54.519Z,34.57
2019-04-03T13:31:54.509Z,34.77
2019-04-03T13:33:00.170Z,35.77
2019-04-03T13:34:19.833Z,35.17
2019-04-03T13:35:19.642Z,34.87
2019-04-03T13:36:19.825Z,35.77
2019-04-03T13:37:22.377Z,34.57
2019-04-03T13:38:21.691Z,35.97
2019-04-03T13:39:19.247Z,34.87
2019-04-03T13:40:19.231Z,35.65
2019-04-03T13:41:19.232Z,34.46
2019-04-03T13:42:19.211Z,34.36
2019-04-03T13:43:20.485Z,34.75
2019-04-03T13:44:19.288Z,35.67
2019-04-03T13:45:19.296Z,34.77
2019-04-03T13:46:19.164Z,35.67
2019-04-03T13:47:19.527Z,35.67
2019-04-03T13:48:19.140Z,35.88
2019-04-03T13:49:19.615Z,35.69
2019-04-03T13:50:21.754Z,36.09
2019-04-03T13:51:19.106Z,35.39
2019-04-03T13:52:19.099Z,35.49
2019-04-03T13:53:20.477Z,35.58
2019-04-03T13:54:19.444Z,35.58
2019-04-03T13:55:19.066Z,36.40
2019-04-03T13:56:19.505Z,35.71
2019-04-03T13:57:19.433Z,36.62
2019-04-03T13:58:21.181Z,36.42
2019-04-03T13:59:19.018Z,36.63
2019-04-03T14:00:22.576Z,36.74
2019-04-03T14:01:19.581Z,36.74
2019-04-03T14:02:19.100Z,36.63
2019-04-03T14:03:19.382Z,36.72
2019-04-03T14:04:20.355Z,36.72
2019-04-03T14:05:18.959Z,36.52
2019-04-03T14:06:18.943Z,36.52